createdAt,value
2022-10-23T00:01:55.816Z,8.87
2022-10-23T00:04:44.678Z,7.87
2022-10-23T00:07:33.530Z,8.00
2022-10-23T00:10:22.830Z,7.43
2022-10-23T00:13:11.994Z,8.10
2022-10-23T00:16:02.139Z,8.07
2022-10-23T00:18:50.972Z,7.30
2022-10-23T00:21:39.963Z,7.33
2022-10-23T00:24:28.761Z,8.10
2022-10-23T00:27:17.602Z,7.40
2022-10-23T00:30:07.403Z,8.43
2022-10-23T00:32:57.568Z,8.13
2022-10-23T00:35:46.374Z,8.03
2022-10-23T00:38:35.677Z,7.93
2022-10-23T00:41:25.912Z,7.73
2022-10-23T00:44:29.610Z,8.40
2022-10-23T00:47:18.848Z,8.50
2022-10-23T00:50:09.556Z,8.80
2022-10-23T00:52:58.974Z,9.00
2022-10-23T00:55:48.938Z,9.50
2022-10-23T00:58:38.113Z,9.80
2022-10-23T01:01:27.113Z,9.27
2022-10-23T01:04:16.217Z,11.17
2022-10-23T01:07:09.614Z,11.20
2022-10-23T01:10:02.583Z,11.67
2022-10-23T01:12:55.350Z,10.80
2022-10-23T01:15:46.646Z,11.97
2022-10-23T01:18:39.567Z,11.83
2022-10-23T01:21:32.345Z,12.60
2022-10-23T01:24:26.138Z,13.70
2022-10-23T01:27:18.513Z,13.80
2022-10-23T01:30:08.707Z,12.53
2022-10-23T01:32:59.905Z,12.37
2022-10-23T01:35:50.998Z,11.37
2022-10-23T01:38:42.726Z,10.80
2022-10-23T01:41:33.394Z,9.60
2022-10-23T01:44:25.625Z,8.47
2022-10-23T01:47:15.348Z,7.70
2022-10-23T01:50:05.562Z,8.03
2022-10-23T01:52:54.370Z,7.30
2022-10-23T01:55:44.058Z,7.77
2022-10-23T01:58:34.291Z,7.70
2022-10-23T02:01:26.251Z,7.40
2022-10-23T02:04:17.198Z,7.73
2022-10-23T02:07:06.238Z,7.57
2022-10-23T02:09:55.289Z,6.00
2022-10-23T02:12:49.514Z,6.93
2022-10-23T02:15:40.643Z,6.80
2022-10-23T02:18:36.165Z,6.70
2022-10-23T02:21:29.156Z,6.33
2022-10-23T02:24:19.538Z,7.20
2022-10-23T02:27:11.955Z,6.57
2022-10-23T02:30:03.554Z,6.43
2022-10-23T02:32:54.109Z,7.60
2022-10-23T02:35:44.293Z,7.40
2022-10-23T02:38:35.129Z,5.87
2022-10-23T02:41:29.878Z,7.67
2022-10-23T02:44:30.314Z,7.27
2022-10-23T02:47:23.918Z,6.70
2022-10-23T02:50:19.069Z,6.87
2022-10-23T02:53:13.433Z,7.93
2022-10-23T02:56:04.990Z,7.50
2022-10-23T02:59:01.406Z,7.40
2022-10-23T03:01:51.801Z,7.60
2022-10-23T03:04:41.850Z,7.00
2022-10-23T03:07:31.031Z,7.70
2022-10-23T03:10:21.554Z,6.90
2022-10-23T03:13:11.311Z,6.80
2022-10-23T03:16:00.481Z,6.13
2022-10-23T03:18:49.285Z,6.33
2022-10-23T03:21:38.178Z,6.47
2022-10-23T03:24:27.001Z,6.63
2022-10-23T03:27:17.317Z,6.93
2022-10-23T03:30:06.885Z,6.93
2022-10-23T03:32:55.672Z,6.60
2022-10-23T03:35:44.530Z,6.70
2022-10-23T03:38:33.390Z,7.20
2022-10-23T03:41:22.208Z,7.20
2022-10-23T03:44:12.393Z,7.07
2022-10-23T03:47:01.323Z,6.80
2022-10-23T03:49:50.134Z,6.77
2022-10-23T03:52:39.360Z,7.10
2022-10-23T03:55:28.345Z,7.07
2022-10-23T03:58:17.232Z,7.23
2022-10-23T04:01:07.489Z,7.50
2022-10-23T04:03:56.396Z,7.33
2022-10-23T04:06:45.249Z,6.97
2022-10-23T04:09:34.207Z,6.50
2022-10-23T04:12:23.054Z,7.13
2022-10-23T04:15:12.175Z,7.27
2022-10-23T04:18:02.329Z,6.30
2022-10-23T04:20:51.533Z,6.97
2022-10-23T04:23:40.518Z,7.20
2022-10-23T04:26:29.343Z,8.03
2022-10-23T04:29:18.153Z,7.73
2022-10-23T04:32:08.427Z,7.23
2022-10-23T04:34:58.583Z,6.83
2022-10-23T04:37:47.581Z,7.80
2022-10-23T04:40:36.417Z,7.60
2022-10-23T04:43:25.312Z,7.40
2022-10-23T04:46:14.127Z,7.93
2022-10-23T04:49:02.985Z,7.00
2022-10-23T04:51:53.191Z,7.07
2022-10-23T04:54:42.115Z,6.67
2022-10-23T04:57:30.934Z,7.07
2022-10-23T05:00:20.648Z,6.90
2022-10-23T05:03:09.481Z,8.17
2022-10-23T05:05:58.477Z,7.83
2022-10-23T05:08:49.025Z,7.80
2022-10-23T05:11:37.853Z,7.93
2022-10-23T05:14:27.031Z,8.20
2022-10-23T05:17:17.862Z,7.53
2022-10-23T05:20:09.222Z,7.47
2022-10-23T05:22:58.783Z,7.37
2022-10-23T05:25:48.964Z,8.10
2022-10-23T05:28:37.857Z,8.30
2022-10-23T05:31:27.117Z,7.50
2022-10-23T05:34:17.072Z,7.63
2022-10-23T05:37:07.807Z,6.80
2022-10-23T05:39:56.677Z,7.30
2022-10-23T05:42:47.313Z,7.40
2022-10-23T05:45:36.446Z,7.53
2022-10-23T05:48:35.858Z,7.60
2022-10-23T05:51:24.731Z,8.27
2022-10-23T05:54:13.686Z,8.80
2022-10-23T05:57:02.508Z,8.37
2022-10-23T05:59:52.691Z,8.07
2022-10-23T06:02:41.633Z,8.30
2022-10-23T06:05:30.550Z,9.40
2022-10-23T06:08:19.495Z,9.77
2022-10-23T06:11:09.528Z,7.70
2022-10-23T06:13:58.382Z,8.93
2022-10-23T06:16:48.666Z,9.07
2022-10-23T06:19:37.461Z,9.13
2022-10-23T06:22:26.277Z,9.50
2022-10-23T06:25:15.127Z,8.53
2022-10-23T06:28:03.967Z,8.73
2022-10-23T06:30:52.782Z,7.97
2022-10-23T06:33:43.134Z,7.87
2022-10-23T06:36:31.967Z,8.63
2022-10-23T06:39:22.042Z,8.40
2022-10-23T06:42:10.931Z,7.50
2022-10-23T06:45:03.291Z,8.80
2022-10-23T06:47:56.054Z,7.07
2022-10-23T06:50:46.213Z,6.87
2022-10-23T06:53:35.686Z,6.93
2022-10-23T06:56:28.993Z,7.63
2022-10-23T06:59:17.982Z,6.27
2022-10-23T07:02:06.805Z,7.70
2022-10-23T07:04:55.617Z,7.73
2022-10-23T07:07:45.947Z,8.63
2022-10-23T07:10:34.793Z,6.57
2022-10-23T07:13:24.864Z,5.60
2022-10-23T07:16:14.763Z,6.20
2022-10-23T07:19:03.728Z,6.47
2022-10-23T07:21:52.815Z,6.30
2022-10-23T07:24:42.969Z,6.80
2022-10-23T07:27:31.780Z,6.37
2022-10-23T07:30:20.582Z,6.03
2022-10-23T07:33:12.301Z,5.97
2022-10-23T07:36:01.160Z,6.10
2022-10-23T07:38:50.060Z,6.67
2022-10-23T07:41:40.573Z,5.70
2022-10-23T07:44:29.373Z,5.17
2022-10-23T07:47:18.213Z,6.37
2022-10-23T07:50:07.409Z,5.63
2022-10-23T07:52:57.112Z,6.30
2022-10-23T07:55:45.965Z,5.27
2022-10-23T07:58:36.170Z,4.87
2022-10-23T08:01:27.730Z,5.50
2022-10-23T08:04:16.650Z,5.43
2022-10-23T08:07:05.556Z,5.57
2022-10-23T08:09:54.368Z,7.03
2022-10-23T08:12:43.438Z,5.73
2022-10-23T08:15:33.859Z,4.90
2022-10-23T08:18:22.717Z,4.90
2022-10-23T08:21:11.906Z,4.13
2022-10-23T08:24:01.444Z,3.53
2022-10-23T08:26:50.914Z,3.43
2022-10-23T08:29:39.799Z,3.07
2022-10-23T08:32:32.262Z,3.13
2022-10-23T08:35:21.329Z,2.93
2022-10-23T08:38:10.392Z,2.50
2022-10-23T08:41:01.443Z,2.70
2022-10-23T08:43:53.342Z,2.40
2022-10-23T08:46:44.218Z,2.63
2022-10-23T08:49:38.350Z,3.30
2022-10-23T08:52:31.002Z,2.23
2022-10-23T08:55:24.530Z,2.57
2022-10-23T08:58:17.138Z,2.20
2022-10-23T09:01:18.856Z,1.90
2022-10-23T09:04:07.955Z,2.33
2022-10-23T09:07:01.714Z,2.03
2022-10-23T09:09:56.876Z,2.43
2022-10-23T09:12:45.752Z,2.30
2022-10-23T09:15:36.934Z,3.10
2022-10-23T09:18:26.047Z,2.40
2022-10-23T09:21:14.873Z,2.43
2022-10-23T09:24:05.165Z,1.90
2022-10-23T09:26:55.582Z,2.90
2022-10-23T09:29:48.984Z,2.20
2022-10-23T09:32:38.519Z,2.80
2022-10-23T09:35:28.404Z,2.10
2022-10-23T09:38:26.956Z,2.33
2022-10-23T09:41:19.149Z,2.03
2022-10-23T09:44:18.451Z,2.27
2022-10-23T09:47:11.149Z,2.30
2022-10-23T09:50:00.000Z,2.53
2022-10-23T09:52:51.580Z,2.13
2022-10-23T09:55:40.965Z,2.50
2022-10-23T09:58:36.385Z,2.03
2022-10-23T10:01:26.296Z,2.47
2022-10-23T10:04:15.369Z,2.20
2022-10-23T10:07:06.574Z,2.57
2022-10-23T10:10:02.396Z,2.77
2022-10-23T10:12:51.994Z,2.90
2022-10-23T10:15:45.897Z,2.47
2022-10-23T10:18:39.331Z,1.90
2022-10-23T10:21:30.103Z,2.57
2022-10-23T10:24:21.511Z,2.13
2022-10-23T10:27:19.309Z,2.80
2022-10-23T10:30:12.176Z,1.80
2022-10-23T10:33:03.485Z,3.67
2022-10-23T10:35:54.767Z,2.17
2022-10-23T10:38:49.541Z,2.40
2022-10-23T10:41:45.015Z,1.93
2022-10-23T10:44:44.537Z,2.03
2022-10-23T10:47:35.111Z,1.97
2022-10-23T10:50:27.102Z,2.50
2022-10-23T10:53:20.219Z,2.10
2022-10-23T10:59:05.547Z,1.90
2022-10-23T11:01:58.526Z,1.80
2022-10-23T11:04:49.223Z,1.57
2022-10-23T11:07:41.328Z,1.83
2022-10-23T11:10:31.482Z,1.80
2022-10-23T11:13:26.510Z,2.00
2022-10-23T11:16:17.251Z,2.23
2022-10-23T11:19:13.097Z,1.60
2022-10-23T11:22:06.041Z,1.43
2022-10-23T11:25:13.615Z,1.90
2022-10-23T11:28:15.016Z,1.50
2022-10-23T11:31:19.180Z,1.80
2022-10-23T11:34:24.404Z,1.63
2022-10-23T11:37:17.437Z,1.53
2022-10-23T11:40:16.813Z,1.80
2022-10-23T11:43:05.663Z,1.70
2022-10-23T11:45:54.505Z,1.20
2022-10-23T11:48:44.614Z,1.20
2022-10-23T11:51:36.182Z,1.70
2022-10-23T11:54:27.255Z,1.70
2022-10-23T11:57:17.408Z,1.63
2022-10-23T12:00:21.592Z,1.53
2022-10-23T12:03:19.218Z,1.87
2022-10-23T12:06:08.570Z,1.50
2022-10-23T12:09:01.347Z,1.80
2022-10-23T12:11:51.281Z,1.30
2022-10-23T12:14:41.139Z,1.70
2022-10-23T12:17:39.905Z,1.60
2022-10-23T12:20:31.022Z,1.83
2022-10-23T12:23:30.109Z,1.83
2022-10-23T12:26:23.969Z,1.33
2022-10-23T12:29:18.701Z,1.40
2022-10-23T12:32:14.272Z,1.30
2022-10-23T12:35:20.756Z,1.10
2022-10-23T12:38:15.073Z,1.33
2022-10-23T12:41:06.436Z,1.00
2022-10-23T12:43:57.628Z,1.27
2022-10-23T12:46:48.920Z,1.07
2022-10-23T12:49:37.819Z,1.27
2022-10-23T12:52:26.653Z,1.17
2022-10-23T12:55:16.133Z,1.30
2022-10-23T12:58:05.013Z,1.13
2022-10-23T13:00:56.658Z,1.05
2022-10-23T13:03:45.578Z,1.00
2022-10-23T13:06:34.518Z,1.20
2022-10-23T13:09:26.287Z,1.55
2022-10-23T13:12:20.643Z,1.60
2022-10-23T13:15:19.762Z,1.65
2022-10-23T13:18:10.607Z,1.17
2022-10-23T13:21:03.387Z,1.80
2022-10-23T13:23:52.957Z,1.70
2022-10-23T13:26:44.935Z,1.85
2022-10-23T13:29:35.805Z,1.77
2022-10-23T13:32:24.969Z,2.20
2022-10-23T13:35:22.504Z,3.10
2022-10-23T13:38:11.753Z,1.80
2022-10-23T13:41:01.307Z,2.67
2022-10-23T13:43:50.607Z,2.30
2022-10-23T13:46:39.543Z,1.50
2022-10-23T13:49:28.359Z,2.17
2022-10-23T13:52:20.805Z,1.90
2022-10-23T13:55:14.817Z,1.70
2022-10-23T13:58:03.708Z,1.80
2022-10-23T14:00:54.313Z,3.20
2022-10-23T14:03:43.615Z,2.00
2022-10-23T14:06:33.104Z,1.80
2022-10-23T14:09:23.290Z,1.57
2022-10-23T14:12:13.558Z,2.20
2022-10-23T14:15:08.484Z,3.50
2022-10-23T14:17:59.454Z,1.57
2022-10-23T14:20:50.357Z,2.17
2022-10-23T14:23:39.311Z,2.30
2022-10-23T14:26:30.380Z,1.50
2022-10-23T14:29:23.817Z,1.53
2022-10-23T14:32:13.053Z,2.60
2022-10-23T14:35:03.808Z,1.90
2022-10-23T14:37:52.915Z,2.20
2022-10-23T14:40:41.860Z,2.83
2022-10-23T14:43:32.177Z,4.60
2022-10-23T14:46:21.843Z,2.00
2022-10-23T14:49:10.663Z,2.63
2022-10-23T14:51:59.522Z,1.83
2022-10-23T14:54:48.317Z,3.70
2022-10-23T14:57:37.453Z,3.23
2022-10-23T15:00:27.782Z,9.53
2022-10-23T15:03:16.598Z,10.13
2022-10-23T15:06:05.978Z,2.40
2022-10-23T15:08:55.676Z,4.17
2022-10-23T15:11:44.575Z,2.47
2022-10-23T15:14:33.511Z,5.87
2022-10-23T15:17:23.695Z,3.87
2022-10-23T15:20:12.712Z,6.80
2022-10-23T15:23:02.884Z,3.73
2022-10-23T15:25:56.497Z,5.60
2022-10-23T15:28:45.334Z,3.03
2022-10-23T15:31:48.182Z,4.40
2022-10-23T15:34:39.518Z,5.00
2022-10-23T15:37:28.357Z,3.40
2022-10-23T15:40:17.389Z,4.20
2022-10-23T15:43:06.211Z,2.23
2022-10-23T15:45:55.043Z,2.20
2022-10-23T15:48:43.945Z,3.03
2022-10-23T15:51:34.104Z,2.87
2022-10-23T15:54:22.977Z,7.90
2022-10-23T15:57:11.877Z,2.13
2022-10-23T16:00:00.853Z,2.13
2022-10-23T16:02:49.701Z,2.40
2022-10-23T16:05:38.546Z,2.67
2022-10-23T16:08:28.997Z,3.97
2022-10-23T16:11:18.934Z,1.73
2022-10-23T16:14:07.821Z,2.90
2022-10-23T16:16:56.716Z,1.90
2022-10-23T16:19:45.514Z,1.83
2022-10-23T16:22:34.349Z,1.77
2022-10-23T16:25:24.843Z,2.33
2022-10-23T16:28:13.809Z,2.13
2022-10-23T16:31:02.631Z,2.33
2022-10-23T16:33:52.413Z,4.37
2022-10-23T16:36:42.207Z,2.40
2022-10-23T16:39:31.451Z,2.67
2022-10-23T16:42:21.742Z,1.57
2022-10-23T16:45:11.222Z,2.13
2022-10-23T16:48:00.105Z,2.80
2022-10-23T16:50:48.905Z,2.50
2022-10-23T16:53:37.800Z,2.40
2022-10-23T16:56:28.595Z,2.70
2022-10-23T16:59:18.768Z,3.50
2022-10-23T17:02:08.248Z,3.30
2022-10-23T17:04:57.663Z,3.30
2022-10-23T17:07:46.759Z,3.10
2022-10-23T17:10:35.727Z,3.67
2022-10-23T17:13:24.918Z,3.03
2022-10-23T17:16:16.461Z,2.77
2022-10-23T17:19:15.816Z,2.37
2022-10-23T17:22:10.262Z,2.27
2022-10-23T17:25:00.062Z,19.40
2022-10-23T17:27:48.944Z,3.17
2022-10-23T17:30:39.198Z,1.93
2022-10-23T17:33:29.367Z,2.20
2022-10-23T17:36:18.226Z,2.80
2022-10-23T17:39:08.633Z,2.90
2022-10-23T17:41:57.743Z,4.10
2022-10-23T17:44:46.611Z,3.10
2022-10-23T17:47:35.817Z,3.63
2022-10-23T17:50:26.441Z,2.80
2022-10-23T17:53:15.304Z,4.40
2022-10-23T17:56:04.933Z,2.47
2022-10-23T17:58:54.961Z,3.20
2022-10-23T18:01:46.412Z,2.80
2022-10-23T18:04:35.647Z,2.47
2022-10-23T18:07:26.545Z,3.40
2022-10-23T18:10:15.451Z,2.97
2022-10-23T18:13:04.265Z,2.13
2022-10-23T18:15:53.543Z,3.50
2022-10-23T18:18:43.581Z,2.90
2022-10-23T18:21:32.855Z,2.07
2022-10-23T18:24:23.307Z,1.70
2022-10-23T18:27:12.234Z,2.10
2022-10-23T18:30:01.080Z,2.33
2022-10-23T18:32:50.098Z,1.80
2022-10-23T18:35:39.005Z,2.03
2022-10-23T18:38:30.074Z,2.07
2022-10-23T18:41:23.476Z,2.23
2022-10-23T18:44:13.040Z,2.13
2022-10-23T18:47:02.018Z,2.13
2022-10-23T18:49:50.910Z,3.00
2022-10-23T18:52:39.817Z,2.10
2022-10-23T18:55:28.749Z,2.20
2022-10-23T18:58:19.308Z,4.13
2022-10-23T19:01:08.205Z,3.20
2022-10-23T19:03:57.990Z,2.60
2022-10-23T19:06:47.118Z,3.43
2022-10-23T19:09:36.234Z,7.70
2022-10-23T19:12:25.120Z,4.17
2022-10-23T19:15:16.144Z,3.90
2022-10-23T19:18:05.679Z,4.60
2022-10-23T19:20:54.681Z,7.00
2022-10-23T19:23:44.426Z,3.33
2022-10-23T19:26:35.360Z,4.40
2022-10-23T19:29:26.518Z,3.17
2022-10-23T19:32:16.759Z,2.80
2022-10-23T19:35:05.724Z,2.87
2022-10-23T19:37:54.528Z,2.80
2022-10-23T19:40:43.335Z,3.43
2022-10-23T19:43:32.138Z,3.43
2022-10-23T19:46:21.954Z,2.70
2022-10-23T19:49:12.412Z,6.33
2022-10-23T19:52:01.241Z,6.40
2022-10-23T19:54:50.380Z,4.90
2022-10-23T19:57:39.410Z,2.97
2022-10-23T20:00:28.878Z,3.03
2022-10-23T20:03:19.405Z,2.30
2022-10-23T20:06:11.150Z,2.67
2022-10-23T20:09:05.103Z,2.17
2022-10-23T20:11:53.897Z,1.73
2022-10-23T20:14:42.815Z,1.30
2022-10-23T20:17:31.847Z,1.47
2022-10-23T20:20:21.126Z,2.50
2022-10-23T20:23:11.293Z,2.07
2022-10-23T20:26:05.377Z,2.13
2022-10-23T20:28:55.075Z,1.40
2022-10-23T20:31:44.307Z,1.67
2022-10-23T20:34:33.138Z,1.17
2022-10-23T20:37:21.991Z,1.47
2022-10-23T20:40:12.455Z,1.90
2022-10-23T20:43:01.281Z,1.20
2022-10-23T20:45:50.239Z,1.10
2022-10-23T20:48:39.127Z,1.30
2022-10-23T20:51:28.161Z,1.37
2022-10-23T20:54:17.020Z,1.10
2022-10-23T20:57:07.232Z,1.00
2022-10-23T20:59:56.066Z,1.33
2022-10-23T21:02:47.193Z,1.10
2022-10-23T21:05:38.803Z,1.27
2022-10-23T21:08:27.625Z,1.13
2022-10-23T21:11:17.657Z,1.10
2022-10-23T21:14:08.199Z,2.07
2022-10-23T21:16:57.083Z,3.37
2022-10-23T21:19:46.037Z,1.33
2022-10-23T21:22:34.843Z,1.63
2022-10-23T21:25:24.308Z,1.77
2022-10-23T21:28:13.281Z,1.50
2022-10-23T21:31:06.872Z,1.50
2022-10-23T21:33:55.786Z,1.30
2022-10-23T21:37:07.500Z,1.93
2022-10-23T21:39:55.030Z,1.30
2022-10-23T21:42:43.983Z,1.47
2022-10-23T21:45:32.821Z,1.47
2022-10-23T21:48:22.994Z,2.00
2022-10-23T21:51:14.923Z,2.00
2022-10-23T21:54:03.871Z,2.20
2022-10-23T21:56:54.240Z,2.10
2022-10-23T21:59:43.063Z,1.40
2022-10-23T22:02:31.930Z,1.60
2022-10-23T22:05:22.154Z,1.40
2022-10-23T22:08:10.972Z,1.70
2022-10-23T22:10:59.825Z,1.53
2022-10-23T22:13:48.638Z,1.70
2022-10-23T22:16:37.494Z,1.73
2022-10-23T22:19:26.483Z,1.80
2022-10-23T22:22:16.726Z,2.33
2022-10-23T22:25:06.098Z,2.00
2022-10-23T22:27:54.894Z,2.07
2022-10-23T22:30:43.810Z,1.90
2022-10-23T22:33:32.839Z,2.27
2022-10-23T22:36:22.178Z,2.30
2022-10-23T22:39:12.843Z,1.63
2022-10-23T22:42:01.641Z,1.70
2022-10-23T22:44:50.457Z,1.90
2022-10-23T22:47:39.261Z,1.87
2022-10-23T22:50:28.307Z,1.97
2022-10-23T22:53:17.528Z,1.80
2022-10-23T22:56:08.874Z,2.30
2022-10-23T22:58:57.955Z,2.10
2022-10-23T23:01:47.412Z,1.47
2022-10-23T23:04:38.623Z,2.20
2022-10-23T23:07:28.191Z,1.93
2022-10-23T23:10:17.077Z,2.17
2022-10-23T23:13:07.609Z,2.03
2022-10-23T23:15:56.689Z,2.90
2022-10-23T23:18:45.569Z,1.87
2022-10-23T23:21:34.474Z,1.40
2022-10-23T23:24:23.625Z,1.93
2022-10-23T23:27:12.425Z,1.73
2022-10-23T23:30:05.435Z,1.80
2022-10-23T23:32:54.434Z,2.57
2022-10-23T23:35:43.606Z,3.23
2022-10-23T23:38:32.432Z,1.27
2022-10-23T23:41:21.735Z,1.70
2022-10-23T23:44:11.307Z,1.60
2022-10-23T23:47:01.514Z,1.83
2022-10-23T23:49:50.361Z,2.07
2022-10-23T23:52:39.224Z,1.63
2022-10-23T23:55:28.068Z,1.40
2022-10-23T23:58:16.897Z,1.70
